Bei Facebook empfehlenBei Twitter postenGoogle plusPinterest

Das Wetter im Erzgebirge am 08.02.2015

Wetter und Klima am 08.02.2015 Holzhau im Erzgebirge (630m ü.NN)
Letzte gemessene Temperatur und Uhrzeit der Messung23:45:00 Uhr-6.20 °C
Temperatur (Maximum / Höchstwert) und Uhrzeit der Messung01:30:00 Uhr-0.70 °C
Temperatur (Minimum / Tiefstwert) und Uhrzeit der Messung23:45:00-6.20 °C
Errechneter Absolutwert der Temperaturschwankungen zwischen Tmin und Tmax des Tages5.50 K
Errechnete Tagesmitteltemperatur-2.91979 °C
Gesamt - Niederschlag des Tages (in flüssiger Form)2.07 Liter / m²
Luftdruck (Maximum / Höchstwert) und Zeitpunkt der Messung21:30:00 Uhr1019.60 hPa
Luftdruck (Minimum / Tiefstwert) und Zeitpunkt der Messung02:30:00 Uhr1009.30 hPa
Errechneter Absolutwert der Luftdruckschwankungen des Tages10.30 hPa
Höchste gemessene Windgeschwindigkeit und Uhrzeit der Messung04:15:00 Uhr27.36 km/h
Errechnete Windhäufigkeit in Relation zu den Messwerten des Tages40.62500 %
Niedrigste Windkühle (Windchill) und Zeitpunkt der Messung19:45:00 Uhr-8.60 °C
Taupunkt (Maximum / Höchstwert) und Uhrzeit der Messung01:30:00 Uhr-1.80 °C
Taupunkt (Minimum / Tiefstwert) und Uhrzeit der Messung23:45:00-9.60 °C
Anzahl der automatisch eingelesenen Messwerte 96

Detaillierte Wetter- und Klima- Messwerte für den 08.02.2015 in Holzhau im Erzgebirge (630m ü.NN)
ZeitTemperaturLuftdruckRel. LuftfeuchteWindWindrichtungWindchillTaupunktNiederschlag l/m²
23:45:00-6.20 °C1018.70 hPa79.00 %-9.60 °C2.07
23:30:00-6.10 °C1018.70 hPa79.00 %-9.50 °C2.07
23:15:00-6.10 °C1018.90 hPa79.00 %-9.50 °C2.07
23:00:00-5.90 °C1019.00 hPa79.00 %-9.30 °C2.07
22:45:00-5.70 °C1019.10 hPa79.00 %-9.10 °C2.07
22:30:00-5.70 °C1019.10 hPa79.00 %-9.10 °C2.07
22:15:00-5.60 °C1019.20 hPa78.00 %3.96 km/hNW-5.60 °C-9.20 °C2.07
22:00:00-5.10 °C1019.40 hPa78.00 %-8.70 °C2.07
21:45:00-4.60 °C1019.30 hPa78.00 %-8.20 °C2.07
21:30:00-4.20 °C1019.60 hPa78.00 %-7.80 °C2.07
21:15:00-4.30 °C1019.40 hPa79.00 %-7.80 °C2.07
21:00:00-4.40 °C1019.30 hPa79.00 %4.32 km/hNNW-4.40 °C-7.90 °C2.07
20:45:00-4.40 °C1019.20 hPa79.00 %-7.90 °C2.07
20:30:00-4.40 °C1019.10 hPa79.00 %-7.90 °C2.07
20:15:00-4.20 °C1019.00 hPa79.00 %-7.70 °C2.07
20:00:00-4.40 °C1019.00 hPa78.00 %-8.00 °C2.07
19:45:00-4.50 °C1018.90 hPa76.00 %9.72 km/hWSW-8.60 °C-8.50 °C2.07
19:30:00-4.20 °C1018.80 hPa76.00 %-8.20 °C2.07
19:15:00-4.20 °C1018.70 hPa75.00 %-8.40 °C2.07
19:00:00-4.20 °C1018.60 hPa75.00 %-8.40 °C2.07
18:45:00-4.20 °C1018.50 hPa75.00 %-8.40 °C2.07
18:30:00-4.20 °C1018.30 hPa74.00 %-8.60 °C2.07
18:15:00-4.10 °C1018.10 hPa74.00 %-8.50 °C2.07
18:00:00-4.20 °C1018.10 hPa73.00 %-8.80 °C2.07
17:45:00-3.90 °C1017.70 hPa72.00 %-8.70 °C2.07
17:30:00-3.70 °C1017.60 hPa72.00 %-8.50 °C2.07
17:15:00-3.60 °C1017.30 hPa71.00 %-8.60 °C2.07
17:00:00-3.50 °C1017.20 hPa70.00 %-8.70 °C2.07
16:45:00-3.20 °C1017.10 hPa69.00 %-8.70 °C2.07
16:30:00-2.90 °C1016.80 hPa69.00 %-8.40 °C2.07
16:15:00-2.60 °C1016.70 hPa67.00 %-8.50 °C2.07
16:00:00-2.40 °C1016.50 hPa66.00 %10.80 km/hWSW-6.40 °C-8.50 °C2.07
15:45:00-2.10 °C1016.50 hPa66.00 %-8.20 °C2.07
15:30:00-1.50 °C1016.10 hPa67.00 %5.76 km/hSSW-3.60 °C-7.50 °C2.07
15:15:00-0.80 °C1016.00 hPa69.00 %6.48 km/hWSW-3.10 °C-6.40 °C2.07
15:00:00-1.40 °C1015.80 hPa71.00 %12.96 km/hWSW-5.70 °C-6.50 °C2.07
14:45:00-1.50 °C1015.80 hPa72.00 %3.96 km/hW-1.50 °C-6.40 °C2.07
14:30:00-2.10 °C1015.70 hPa74.00 %-6.60 °C2.07
14:15:00-2.10 °C1015.60 hPa73.00 %10.44 km/hNNW-5.90 °C-6.80 °C2.07
14:00:00-1.90 °C1015.60 hPa75.00 %7.56 km/hW-4.80 °C-6.20 °C2.07
13:45:00-1.70 °C1015.50 hPa75.00 %6.48 km/hNW-4.20 °C-6.00 °C2.07
13:30:00-1.60 °C1015.40 hPa76.00 %-5.70 °C2.07
13:15:00-1.70 °C1015.30 hPa80.00 %7.20 km/hNW-4.50 °C-5.00 °C2.07
13:00:00-2.10 °C1015.20 hPa80.00 %5.04 km/hN-4.00 °C-5.40 °C2.07
12:45:00-2.40 °C1015.00 hPa80.00 %5.04 km/hWSW-4.30 °C-5.70 °C2.07
12:30:00-2.50 °C1015.20 hPa81.00 %-5.60 °C2.07
12:15:00-2.50 °C1014.90 hPa81.00 %-5.60 °C2.07
12:00:00-2.50 °C1015.00 hPa82.00 %-5.50 °C2.07
11:45:00-2.50 °C1015.00 hPa83.00 %-5.30 °C2.07
11:30:00-2.70 °C1014.80 hPa84.00 %-5.30 °C2.07
11:15:00-2.80 °C1014.50 hPa85.00 %9.00 km/hSW-6.40 °C-5.20 °C2.07
11:00:00-2.90 °C1014.30 hPa86.00 %-5.10 °C2.07
10:45:00-3.10 °C1014.20 hPa87.00 %-5.20 °C2.07
10:30:00-3.10 °C1013.90 hPa88.00 %-5.00 °C2.07
10:15:00-3.30 °C1013.70 hPa88.00 %-5.20 °C2.07
10:00:00-3.50 °C1013.60 hPa88.00 %4.68 km/hNNW-3.50 °C-5.40 °C2.07
09:45:00-3.00 °C1013.50 hPa89.00 %-4.70 °C2.07
09:30:00-3.10 °C1013.00 hPa90.00 %5.40 km/hNW-5.30 °C-4.70 °C2.07
09:15:00-3.80 °C1012.90 hPa90.00 %4.32 km/hNO-3.80 °C-5.40 °C2.07
09:00:00-3.80 °C1012.50 hPa89.00 %-5.50 °C2.07
08:45:00-3.30 °C1012.30 hPa90.00 %-4.90 °C2.07
08:30:00-3.40 °C1012.50 hPa91.00 %14.40 km/hWNW-8.50 °C-4.80 °C2.07
08:15:00-3.60 °C1012.00 hPa91.00 %-5.00 °C2.07
08:00:00-3.70 °C1011.90 hPa91.00 %-5.10 °C2.07
07:45:00-3.60 °C1011.60 hPa90.00 %-5.20 °C2.07
07:30:00-3.50 °C1011.30 hPa90.00 %-5.10 °C2.07
07:15:00-3.40 °C1011.10 hPa90.00 %5.76 km/hNW-5.80 °C-5.00 °C2.07
07:00:00-3.30 °C1011.20 hPa90.00 %-4.90 °C2.07
06:45:00-3.10 °C1010.80 hPa90.00 %-4.70 °C2.07
06:30:00-2.90 °C1010.70 hPa90.00 %-4.50 °C2.07
06:15:00-2.80 °C1010.20 hPa91.00 %8.28 km/hWNW-6.10 °C-4.20 °C2.07
06:00:00-2.70 °C1010.20 hPa91.00 %-4.10 °C2.07
05:45:00-2.60 °C1010.00 hPa91.00 %14.40 km/hNW-7.50 °C-4.00 °C2.07
05:30:00-2.40 °C1009.90 hPa91.00 %-3.80 °C2.07
05:15:00-2.20 °C1009.60 hPa91.00 %8.64 km/hW-5.50 °C-3.60 °C2.07
05:00:00-2.10 °C1009.70 hPa91.00 %-3.50 °C2.07
04:45:00-2.10 °C1009.70 hPa92.00 %4.32 km/hWNW-2.10 °C-3.40 °C2.07
04:30:00-1.90 °C1009.80 hPa92.00 %-3.20 °C2.07
04:15:00-1.80 °C1009.90 hPa91.00 %27.36 km/hNNW-8.50 °C-3.20 °C 
04:00:00-1.70 °C1009.60 hPa91.00 %5.76 km/hNNW-3.90 °C-3.10 °C 
03:45:00-1.70 °C1009.70 hPa91.00 %-3.10 °C 
03:30:00-1.60 °C1009.60 hPa92.00 %6.12 km/hW-3.90 °C-2.90 °C 
03:15:00-1.30 °C1009.40 hPa92.00 %4.32 km/hW-1.30 °C-2.60 °C 
03:00:00-1.10 °C1009.80 hPa93.00 %19.44 km/hW-6.50 °C-2.20 °C 
02:45:00-1.00 °C1009.40 hPa93.00 %11.16 km/hNNW-4.80 °C-2.10 °C 
02:30:00-1.00 °C1009.30 hPa93.00 %7.56 km/hNW-3.80 °C-2.10 °C 
02:15:00-0.80 °C1009.60 hPa93.00 %5.76 km/hNNW-2.80 °C-1.90 °C 
02:00:00-0.80 °C1009.60 hPa93.00 %10.08 km/hNW-4.30 °C-1.90 °C 
01:45:00-0.80 °C1009.80 hPa93.00 %7.56 km/hWNW-3.50 °C-1.90 °C 
01:30:00-0.70 °C1010.20 hPa93.00 %2.16 km/hNW-0.70 °C-1.80 °C 
01:15:00-0.70 °C1010.60 hPa93.00 %9.72 km/hW-4.10 °C-1.80 °C 
01:00:00-0.70 °C1010.90 hPa93.00 %-1.80 °C 
00:45:00-0.80 °C1011.30 hPa93.00 %5.04 km/hWNW-2.50 °C-1.90 °C 
00:30:00-0.70 °C1011.60 hPa93.00 %-1.80 °C 
00:15:00-0.80 °C1012.10 hPa93.00 %10.44 km/hNNW-4.40 °C-1.90 °C 
00:00:00-0.80 °C1012.30 hPa93.00 %5.40 km/hWSW-2.70 °C-1.90 °C 

Permanenter Link zu dieser Seite: Wetter im Erzgebirge am 08.02.2015
Performance-Info: Die Erstellung der Seite / Statistik(en) / Tabelle(n) erforderte 5 Datenbankserver-Abfrage(n) und dauerte 122 Millisekunden. (Dieser Messwert ist von der Gesamt-Auslastung des Servers abhängig.)
Erzgebirge - Wetter | Erzgebirge - Wetter (Mobilgeräte) | Komplette Klimadatenbank